sensor_id;sensor_type;location;lat;lon;timestamp;temperature;humidity
54824;DHT22;40724;53.196;5.980;2023-08-21T08:49:33;21.80;91.40
54824;DHT22;40724;53.196;5.980;2023-08-21T08:56:53;22.30;97.60
54824;DHT22;40724;53.196;5.980;2023-08-21T08:59:20;22.50;97.50
54824;DHT22;40724;53.196;5.980;2023-08-21T09:01:46;22.50;97.40
54824;DHT22;40724;53.196;5.980;2023-08-21T09:04:12;22.60;97.60
54824;DHT22;40724;53.196;5.980;2023-08-21T09:06:38;22.70;97.30
54824;DHT22;40724;53.196;5.980;2023-08-21T09:09:04;22.80;97.30
54824;DHT22;40724;53.196;5.980;2023-08-21T09:11:32;22.90;97.20
54824;DHT22;40724;53.196;5.980;2023-08-21T09:13:58;23.00;97.10
54824;DHT22;40724;53.196;5.980;2023-08-21T09:16:25;23.00;97.10
54824;DHT22;40724;53.196;5.980;2023-08-21T09:18:55;23.10;97.00
54824;DHT22;40724;53.196;5.980;2023-08-21T09:21:25;23.20;97.00
54824;DHT22;40724;53.196;5.980;2023-08-21T09:24:00;23.30;97.00
54824;DHT22;40724;53.196;5.980;2023-08-21T09:26:26;23.40;96.90
54824;DHT22;40724;53.196;5.980;2023-08-21T09:28:53;23.50;96.90
54824;DHT22;40724;53.196;5.980;2023-08-21T09:31:32;23.60;96.80
54824;DHT22;40724;53.196;5.980;2023-08-21T09:33:59;23.70;96.80
54824;DHT22;40724;53.196;5.980;2023-08-21T09:36:27;23.80;96.70
54824;DHT22;40724;53.196;5.980;2023-08-21T09:38:53;23.90;96.70
54824;DHT22;40724;53.196;5.980;2023-08-21T09:41:20;24.00;96.60
54824;DHT22;40724;53.196;5.980;2023-08-21T09:48:44;24.00;96.50
54824;DHT22;40724;53.196;5.980;2023-08-21T09:51:11;24.30;96.10
54824;DHT22;40724;53.196;5.980;2023-08-21T09:53:37;24.40;96.20
54824;DHT22;40724;53.196;5.980;2023-08-21T09:56:05;24.50;96.10
54824;DHT22;40724;53.196;5.980;2023-08-21T09:58:31;24.50;95.90
54824;DHT22;40724;53.196;5.980;2023-08-21T10:00:58;24.70;95.60
54824;DHT22;40724;53.196;5.980;2023-08-21T10:03:25;24.70;95.40
54824;DHT22;40724;53.196;5.980;2023-08-21T10:05:55;24.80;95.40
54824;DHT22;40724;53.196;5.980;2023-08-21T10:08:25;24.90;95.50
54824;DHT22;40724;53.196;5.980;2023-08-21T10:10:51;25.00;95.20
54824;DHT22;40724;53.196;5.980;2023-08-21T10:13:18;25.10;95.10
54824;DHT22;40724;53.196;5.980;2023-08-21T10:15:44;25.20;95.00
54824;DHT22;40724;53.196;5.980;2023-08-21T10:18:34;25.30;95.00
54824;DHT22;40724;53.196;5.980;2023-08-21T10:21:30;25.40;94.90
54824;DHT22;40724;53.196;5.980;2023-08-21T10:24:00;25.50;94.80
54824;DHT22;40724;53.196;5.980;2023-08-21T10:26:26;25.60;94.70
54824;DHT22;40724;53.196;5.980;2023-08-21T10:28:59;25.70;94.70
54824;DHT22;40724;53.196;5.980;2023-08-21T10:31:38;25.80;94.60
54824;DHT22;40724;53.196;5.980;2023-08-21T10:34:09;25.90;94.40
54824;DHT22;40724;53.196;5.980;2023-08-21T10:47:21;26.20;94.20
54824;DHT22;40724;53.196;5.980;2023-08-21T12:23:35;26.60;93.80
54824;DHT22;40724;53.196;5.980;2023-08-21T12:26:01;28.30;89.50
54824;DHT22;40724;53.196;5.980;2023-08-21T12:28:27;28.20;89.00
54824;DHT22;40724;53.196;5.980;2023-08-21T12:30:56;28.30;88.70
54824;DHT22;40724;53.196;5.980;2023-08-21T14:59:51;28.30;88.10
54824;DHT22;40724;53.196;5.980;2023-08-21T15:02:17;30.40;82.90
54824;DHT22;40724;53.196;5.980;2023-08-21T15:04:43;30.40;82.70
54824;DHT22;40724;53.196;5.980;2023-08-21T15:07:09;30.50;82.50
54824;DHT22;40724;53.196;5.980;2023-08-21T15:09:34;30.50;82.30
54824;DHT22;40724;53.196;5.980;2023-08-21T15:12:00;30.50;82.10
54824;DHT22;40724;53.196;5.980;2023-08-21T15:14:26;30.70;81.80
54824;DHT22;40724;53.196;5.980;2023-08-21T15:16:52;30.70;81.70
54824;DHT22;40724;53.196;5.980;2023-08-21T15:19:18;30.80;81.70
54824;DHT22;40724;53.196;5.980;2023-08-21T15:21:43;30.90;81.50
54824;DHT22;40724;53.196;5.980;2023-08-21T15:24:09;30.90;81.20
54824;DHT22;40724;53.196;5.980;2023-08-21T15:26:35;30.90;80.80
54824;DHT22;40724;53.196;5.980;2023-08-21T15:29:01;30.90;80.70
54824;DHT22;40724;53.196;5.980;2023-08-21T15:31:28;30.90;80.40
54824;DHT22;40724;53.196;5.980;2023-08-21T15:33:54;31.00;80.10
54824;DHT22;40724;53.196;5.980;2023-08-21T15:36:20;31.00;79.80
54824;DHT22;40724;53.196;5.980;2023-08-21T15:38:46;31.00;79.60
54824;DHT22;40724;53.196;5.980;2023-08-21T15:41:11;31.00;79.40
54824;DHT22;40724;53.196;5.980;2023-08-21T15:43:37;31.10;79.40
54824;DHT22;40724;53.196;5.980;2023-08-21T15:46:03;31.10;79.50
54824;DHT22;40724;53.196;5.980;2023-08-21T15:48:32;31.10;79.10
54824;DHT22;40724;53.196;5.980;2023-08-21T15:50:58;31.10;78.90
54824;DHT22;40724;53.196;5.980;2023-08-21T15:53:24;31.10;78.90
54824;DHT22;40724;53.196;5.980;2023-08-21T15:55:50;31.10;78.80
54824;DHT22;40724;53.196;5.980;2023-08-21T15:58:16;31.10;78.70
54824;DHT22;40724;53.196;5.980;2023-08-21T16:00:41;31.20;78.80
54824;DHT22;40724;53.196;5.980;2023-08-21T16:03:07;31.20;78.70
54824;DHT22;40724;53.196;5.980;2023-08-21T16:05:33;31.20;78.60
54824;DHT22;40724;53.196;5.980;2023-08-21T16:07:59;31.20;78.60
54824;DHT22;40724;53.196;5.980;2023-08-21T16:10:25;31.20;78.70
54824;DHT22;40724;53.196;5.980;2023-08-21T16:12:51;31.20;78.50
54824;DHT22;40724;53.196;5.980;2023-08-21T16:15:17;31.10;78.30
54824;DHT22;40724;53.196;5.980;2023-08-21T16:17:42;31.10;78.50
54824;DHT22;40724;53.196;5.980;2023-08-21T16:20:08;31.10;78.50
54824;DHT22;40724;53.196;5.980;2023-08-21T16:22:35;31.10;78.40
54824;DHT22;40724;53.196;5.980;2023-08-21T16:25:01;31.00;78.50
54824;DHT22;40724;53.196;5.980;2023-08-21T16:27:28;31.00;78.80
54824;DHT22;40724;53.196;5.980;2023-08-21T16:29:54;30.90;78.60
54824;DHT22;40724;53.196;5.980;2023-08-21T16:32:20;30.90;78.70
54824;DHT22;40724;53.196;5.980;2023-08-21T16:34:46;30.90;78.80
54824;DHT22;40724;53.196;5.980;2023-08-21T16:37:11;30.90;78.60
54824;DHT22;40724;53.196;5.980;2023-08-21T16:39:37;30.90;78.80
54824;DHT22;40724;53.196;5.980;2023-08-21T16:42:05;30.80;78.80
54824;DHT22;40724;53.196;5.980;2023-08-21T16:44:30;30.80;78.70
54824;DHT22;40724;53.196;5.980;2023-08-21T16:47:00;30.80;79.10
54824;DHT22;40724;53.196;5.980;2023-08-21T16:49:25;30.70;78.90
54824;DHT22;40724;53.196;5.980;2023-08-21T16:51:51;30.70;78.60
54824;DHT22;40724;53.196;5.980;2023-08-21T16:54:17;30.70;78.80
54824;DHT22;40724;53.196;5.980;2023-08-21T16:56:43;30.70;79.30
54824;DHT22;40724;53.196;5.980;2023-08-21T16:59:08;30.60;78.80
54824;DHT22;40724;53.196;5.980;2023-08-21T17:01:35;30.50;78.30
54824;DHT22;40724;53.196;5.980;2023-08-21T17:04:01;30.50;78.70
54824;DHT22;40724;53.196;5.980;2023-08-21T17:06:27;30.50;78.30
54824;DHT22;40724;53.196;5.980;2023-08-21T17:08:52;30.40;78.40
54824;DHT22;40724;53.196;5.980;2023-08-21T17:11:18;30.40;78.00
54824;DHT22;40724;53.196;5.980;2023-08-21T17:13:44;30.40;78.00
54824;DHT22;40724;53.196;5.980;2023-08-21T17:16:12;30.30;78.00
54824;DHT22;40724;53.196;5.980;2023-08-21T17:18:38;30.20;77.60
54824;DHT22;40724;53.196;5.980;2023-08-21T17:21:04;30.20;77.40
54824;DHT22;40724;53.196;5.980;2023-08-21T17:23:30;30.10;77.30
54824;DHT22;40724;53.196;5.980;2023-08-21T17:25:56;30.00;77.00
54824;DHT22;40724;53.196;5.980;2023-08-21T17:28:22;29.90;77.30
54824;DHT22;40724;53.196;5.980;2023-08-21T17:30:48;29.80;77.30
54824;DHT22;40724;53.196;5.980;2023-08-21T17:33:14;29.70;77.40
54824;DHT22;40724;53.196;5.980;2023-08-21T17:35:39;29.60;77.80
54824;DHT22;40724;53.196;5.980;2023-08-21T17:38:05;29.50;77.70
54824;DHT22;40724;53.196;5.980;2023-08-21T17:40:31;29.30;78.10
54824;DHT22;40724;53.196;5.980;2023-08-21T17:42:56;29.20;78.50
54824;DHT22;40724;53.196;5.980;2023-08-21T17:45:22;29.10;78.60
54824;DHT22;40724;53.196;5.980;2023-08-21T17:47:48;29.00;78.70
54824;DHT22;40724;53.196;5.980;2023-08-21T17:50:14;28.90;78.90
54824;DHT22;40724;53.196;5.980;2023-08-21T17:52:40;28.70;79.10
54824;DHT22;40724;53.196;5.980;2023-08-21T17:55:06;28.60;79.70
54824;DHT22;40724;53.196;5.980;2023-08-21T17:59:58;28.40;79.80
54824;DHT22;40724;53.196;5.980;2023-08-21T18:07:17;28.40;79.30
54824;DHT22;40724;53.196;5.980;2023-08-21T18:19:39;28.10;79.60
54824;DHT22;40724;53.196;5.980;2023-08-21T18:22:05;27.50;80.10
54824;DHT22;40724;53.196;5.980;2023-08-21T18:24:31;27.40;80.20
54824;DHT22;40724;53.196;5.980;2023-08-21T18:26:56;27.40;80.70
54824;DHT22;40724;53.196;5.980;2023-08-21T18:39:06;27.20;80.40
54824;DHT22;40724;53.196;5.980;2023-08-21T18:41:35;26.90;81.30
54824;DHT22;40724;53.196;5.980;2023-08-21T18:44:01;26.80;81.40
54824;DHT22;40724;53.196;5.980;2023-08-21T19:08:25;26.70;81.50
54824;DHT22;40724;53.196;5.980;2023-08-21T19:10:52;26.00;83.00
54824;DHT22;40724;53.196;5.980;2023-08-21T19:35:14;25.80;83.00
54824;DHT22;40724;53.196;5.980;2023-08-21T19:59:37;25.20;84.10
54824;DHT22;40724;53.196;5.980;2023-08-21T20:02:03;24.70;85.30
54824;DHT22;40724;53.196;5.980;2023-08-21T20:04:29;24.50;85.50
54824;DHT22;40724;53.196;5.980;2023-08-21T20:06:55;24.50;85.60
54824;DHT22;40724;53.196;5.980;2023-08-21T20:38:38;24.40;85.60
54824;DHT22;40724;53.196;5.980;2023-08-21T20:41:04;23.90;87.00
54824;DHT22;40724;53.196;5.980;2023-08-21T21:49:28;22.80;88.90
54824;DHT22;40724;53.196;5.980;2023-08-21T21:51:53;22.70;89.30
54824;DHT22;40724;53.196;5.980;2023-08-21T21:54:19;22.70;89.40
54824;DHT22;40724;53.196;5.980;2023-08-21T22:40:39;22.60;90.00
54824;DHT22;40724;53.196;5.980;2023-08-21T22:43:05;22.20;90.60
54824;DHT22;40724;53.196;5.980;2023-08-21T22:45:30;22.20;90.60
54824;DHT22;40724;53.196;5.980;2023-08-21T22:47:56;22.20;90.70
54824;DHT22;40724;53.196;5.980;2023-08-21T22:50:22;22.10;90.70
54824;DHT22;40724;53.196;5.980;2023-08-21T22:52:48;22.10;90.70
54824;DHT22;40724;53.196;5.980;2023-08-21T22:55:13;22.10;90.80
54824;DHT22;40724;53.196;5.980;2023-08-21T22:57:39;22.10;90.80
54824;DHT22;40724;53.196;5.980;2023-08-21T23:00:06;22.00;90.80
54824;DHT22;40724;53.196;5.980;2023-08-21T23:02:33;22.00;90.80
54824;DHT22;40724;53.196;5.980;2023-08-21T23:04:59;22.00;90.90
54824;DHT22;40724;53.196;5.980;2023-08-21T23:07:25;22.00;91.00
54824;DHT22;40724;53.196;5.980;2023-08-21T23:09:51;22.00;91.00
